Time;durP1;ratioP1;P1;durP2;ratioP2;P2;SDS_P1;SDS_P2;PMS_P1;PMS_P2;Temp;Humidity;BMP_temperature;BMP_pressure;BME280_temperature;BME280_humidity;BME280_pressure;Samples;Min_cycle;Max_cycle;Signal;HPM_P1;HPM_P2
2022/05/16 05:54:51;;;;;;;4.70;1.73;;;22.80;74.40;;;;;;4914053;29;20147;-67
2022/05/16 05:58:12;;;;;;;4.10;1.90;;;22.80;71.40;;;;;;4874092;29;20056;-67
2022/05/16 06:00:38;;;;;;;5.40;2.25;;;23.10;74.60;;;;;;4931390;29;20052;-64
2022/05/16 06:03:04;;;;;;;4.78;1.70;;;23.00;74.20;;;;;;4915558;29;20075;-67
2022/05/16 06:09:18;;;;;;;5.47;2.15;;;23.30;70.40;;;;;;4917216;29;20494;-64
2022/05/16 06:11:43;;;;;;;4.28;1.70;;;23.30;74.00;;;;;;4927278;29;20048;-64
2022/05/16 06:14:09;;;;;;;4.88;2.10;;;23.30;74.00;;;;;;4897858;29;20059;-67
2022/05/16 06:16:35;;;;;;;5.22;2.17;;;23.30;71.10;;;;;;4919639;29;20405;-68
2022/05/16 06:19:01;;;;;;;5.05;1.90;;;23.50;71.30;;;;;;4915779;29;20091;-68
2022/05/16 06:21:27;;;;;;;4.80;2.20;;;23.40;71.00;;;;;;4916535;29;20127;-67
2022/05/16 06:23:52;;;;;;;4.53;1.80;;;23.40;70.70;;;;;;4906281;29;20039;-68
2022/05/16 06:26:18;;;;;;;3.80;1.80;;;23.80;70.60;;;;;;4933328;29;20054;-68
2022/05/16 06:28:44;;;;;;;6.47;2.25;;;23.80;70.60;;;;;;4925904;29;20043;-68
2022/05/16 06:31:10;;;;;;;7.47;2.45;;;24.00;70.50;;;;;;4903604;29;20055;-68
2022/05/16 06:33:36;;;;;;;5.18;2.00;;;23.70;70.30;;;;;;4887440;29;20126;-68
2022/05/16 06:36:02;;;;;;;4.97;1.90;;;23.70;70.30;;;;;;4927616;29;20187;-71
2022/05/16 06:38:30;;;;;;;4.07;1.90;;;23.90;70.40;;;;;;4935681;29;20040;-70
2022/05/16 06:40:56;;;;;;;7.07;2.00;;;24.00;70.60;;;;;;4933674;29;20490;-69
2022/05/16 06:43:23;;;;;;;6.25;2.00;;;23.90;72.50;;;;;;4938462;29;20056;-68
2022/05/16 06:45:49;;;;;;;7.93;2.40;;;23.60;72.30;;;;;;4901749;29;20111;-68
2022/05/16 06:48:15;;;;;;;8.25;3.05;;;23.70;69.80;;;;;;4930804;29;20036;-68
2022/05/16 06:50:41;;;;;;;7.80;2.20;;;23.60;72.50;;;;;;4936523;29;20047;-68
2022/05/16 06:53:16;;;;;;;4.78;2.30;;;23.90;70.00;;;;;;4902805;29;20084;-68
2022/05/16 06:55:42;;;;;;;5.30;2.10;;;;;;;;;;4932867;29;20070;-68
2022/05/16 06:58:08;;;;;;;7.72;2.60;;;23.50;72.60;;;;;;4919173;29;20406;-68
2022/05/16 07:00:34;;;;;;;6.45;2.33;;;23.50;72.60;;;;;;4910975;29;20052;-68
2022/05/16 07:03:00;;;;;;;6.20;2.25;;;23.70;70.10;;;;;;4932310;29;20402;-68
2022/05/16 07:05:26;;;;;;;9.25;2.55;;;23.80;72.80;;;;;;4938450;29;20051;-68
2022/05/16 07:07:51;;;;;;;4.43;2.20;;;23.70;70.00;;;;;;4936517;29;20150;-69
2022/05/16 07:10:17;;;;;;;7.10;1.92;;;24.00;72.50;;;;;;4923965;29;20044;-64
2022/05/16 07:12:44;;;;;;;6.93;2.35;;;24.20;72.50;;;;;;4921001;29;20044;-64
2022/05/16 07:15:10;;;;;;;5.57;2.30;;;24.00;72.20;;;;;;4918992;29;20056;-64
2022/05/16 07:17:36;;;;;;;4.18;1.90;;;24.10;69.20;;;;;;4902263;29;20144;-64
2022/05/16 07:20:03;;;;;;;8.32;2.00;;;24.40;72.20;;;;;;4921751;29;20130;-64
2022/05/16 07:22:28;;;;;;;4.22;1.95;;;24.30;69.30;;;;;;4923251;29;20048;-64
2022/05/16 07:24:55;;;;;;;7.07;2.00;;;24.40;69.20;;;;;;4935806;29;20106;-64
2022/05/16 07:30:07;;;;;;;3.88;2.10;;;24.40;68.60;;;;;;4936739;29;20136;-65
2022/05/16 07:32:34;;;;;;;5.20;2.50;;;24.40;68.30;;;;;;4929766;29;20044;-64
2022/05/16 07:35:01;;;;;;;7.68;2.45;;;24.80;69.00;;;;;;4918498;29;20056;-69
2022/05/16 07:37:27;;;;;;;11.50;2.90;;;25.20;71.50;;;;;;4935353;29;20044;-70
2022/05/16 07:39:53;;;;;;;8.50;2.70;;;25.00;69.40;;;;;;4904057;29;20390;-68
2022/05/16 07:42:19;;;;;;;4.85;2.17;;;24.90;71.30;;;;;;4935840;29;20043;-69
2022/05/16 07:44:44;;;;;;;12.25;2.78;;;24.80;69.10;;;;;;4932636;29;20610;-70
2022/05/16 07:47:10;;;;;;;11.50;3.50;;;24.70;68.20;;;;;;4937737;29;20063;-70
2022/05/16 07:49:36;;;;;;;10.98;2.50;;;24.60;68.30;;;;;;4920390;29;20052;-70
2022/05/16 07:52:03;;;;;;;11.55;3.10;;;25.00;68.20;;;;;;4925923;29;20122;-69
2022/05/16 07:54:29;;;;;;;11.82;2.92;;;24.90;68.30;;;;;;4904252;29;20446;-68
2022/05/16 07:56:54;;;;;;;8.88;2.70;;;24.70;68.10;;;;;;4904497;29;20064;-69
2022/05/16 07:59:20;;;;;;;10.82;3.28;;;24.80;68.50;;;;;;4936298;29;20075;-69
2022/05/16 08:01:46;;;;;;;11.75;2.92;;;25.00;68.40;;;;;;4937180;29;20134;-69
2022/05/16 08:04:12;;;;;;;13.20;3.30;;;25.00;70.80;;;;;;4931925;29;20132;-64
2022/05/16 08:06:38;;;;;;;9.23;3.30;;;25.20;68.50;;;;;;4915882;29;20524;-63
2022/05/16 08:11:48;;;;;;;15.55;3.25;;;25.10;67.00;;;;;;4916859;29;20084;-64
2022/05/16 08:14:14;;;;;;;12.80;3.10;;;25.00;67.80;;;;;;4916879;29;20087;-64
2022/05/16 08:16:40;;;;;;;19.88;3.20;;;25.00;67.40;;;;;;4930609;29;20050;-63
2022/05/16 08:19:06;;;;;;;15.07;3.65;;;24.90;67.50;;;;;;4930293;29;20478;-64
2022/05/16 08:21:31;;;;;;;16.35;3.00;;;25.10;67.10;;;;;;4918031;29;20398;-63
2022/05/16 08:23:57;;;;;;;10.73;2.92;;;25.00;67.20;;;;;;4901153;29;20500;-64
2022/05/16 08:26:23;;;;;;;10.48;3.05;;;25.10;67.10;;;;;;4918841;29;20078;-64
2022/05/16 08:28:49;;;;;;;9.65;2.90;;;24.90;67.10;;;;;;4919714;29;20054;-64
2022/05/16 08:31:15;;;;;;;10.95;3.15;;;25.10;67.10;;;;;;4930513;29;20050;-65
2022/05/16 08:33:41;;;;;;;10.93;3.20;;;25.10;66.70;;;;;;4935688;29;20050;-64
2022/05/16 08:41:55;;;;;;;7.97;3.15;;;25.10;65.70;;;;;;4918262;29;20080;-64
2022/05/16 08:44:41;;;;;;;10.70;3.45;;;25.10;69.50;;;;;;4920114;29;20052;-69
2022/05/16 08:47:14;;;;;;;10.18;3.25;;;25.10;66.80;;;;;;4920910;29;20390;-63
2022/05/16 08:49:43;;;;;;;11.90;3.28;;;25.20;66.90;;;;;;4915139;29;20100;-69
2022/05/16 08:52:25;;;;;;;9.20;3.00;;;25.20;66.50;;;;;;4916275;29;20391;-70
2022/05/16 08:54:59;;;;;;;7.30;2.88;;;25.00;66.70;;;;;;4913891;29;20059;-64
2022/05/16 08:57:33;;;;;;;8.15;2.90;;;25.30;69.50;;;;;;4905085;29;20063;-68
2022/05/16 09:00:30;;;;;;;9.30;3.20;;;25.20;65.40;;;;;;4904816;29;20524;-64
2022/05/16 09:02:56;;;;;;;13.95;3.05;;;25.30;66.50;;;;;;4917660;29;20118;-64
2022/05/16 09:05:37;;;;;;;11.82;3.28;;;25.50;66.70;;;;;;4913879;29;20095;-64
2022/05/16 09:08:06;;;;;;;12.73;3.20;;;25.60;65.50;;;;;;4909949;29;20079;-69
2022/05/16 09:10:38;;;;;;;9.50;3.15;;;25.30;66.50;;;;;;4906357;29;20131;-69
2022/05/16 09:13:22;;;;;;;10.88;3.40;;;25.50;66.40;;;;;;4920044;29;20111;-68
2022/05/16 09:16:13;;;;;;;9.43;3.13;;;25.50;65.10;;;;;;4918486;29;20138;-69
2022/05/16 09:18:48;;;;;;;6.78;2.80;;;25.60;65.40;;;;;;4907550;29;20457;-65
2022/05/16 09:21:22;;;;;;;10.27;3.25;;;25.90;69.60;;;;;;4901879;29;20130;-71
2022/05/16 09:24:08;;;;;;;9.90;4.07;;;25.80;65.20;;;;;;4919025;29;20537;-72
2022/05/16 09:26:47;;;;;;;9.88;3.50;;;25.80;65.20;;;;;;4891799;29;20517;-70
2022/05/16 09:29:39;;;;;;;19.25;3.90;;;25.70;65.00;;;;;;4920245;29;20089;-71
2022/05/16 09:32:11;;;;;;;11.95;3.72;;;25.80;64.90;;;;;;4865166;29;20054;-71
2022/05/16 09:34:37;;;;;;;16.25;3.65;;;25.80;66.50;;;;;;4861883;29;20067;-71
2022/05/16 09:37:03;;;;;;;11.18;3.30;;;25.80;66.10;;;;;;4895376;29;20089;-69
2022/05/16 09:39:32;;;;;;;14.23;3.00;;;26.00;66.30;;;;;;4896284;29;20127;-65
2022/05/16 09:42:02;;;;;;;17.65;3.85;;;25.80;66.10;;;;;;4850614;29;20184;-69
2022/05/16 09:44:32;;;;;;;9.75;3.28;;;25.90;66.80;;;;;;4880656;29;20063;-68
2022/05/16 09:47:32;;;;;;;12.73;3.22;;;25.90;66.10;;;;;;4880441;29;20414;-69
2022/05/16 09:50:20;;;;;;;14.43;3.50;;;25.70;66.00;;;;;;4858754;29;20068;-68
2022/05/16 09:52:52;;;;;;;9.07;2.90;;;25.80;64.80;;;;;;4842450;29;20073;-69
2022/05/16 09:55:25;;;;;;;10.27;3.58;;;25.80;64.70;;;;;;4858434;29;20057;-69
2022/05/16 09:57:56;;;;;;;10.82;3.35;;;25.90;66.30;;;;;;4828141;29;20113;-69
2022/05/16 10:00:38;;;;;;;10.02;3.05;;;25.90;64.60;;;;;;4859117;29;20062;-70
2022/05/16 10:03:42;;;;;;;9.60;3.40;;;26.00;64.80;;;;;;4847313;29;20054;-68
2022/05/16 10:06:25;;;;;;;11.52;3.13;;;26.20;66.30;;;;;;4843617;29;20065;-64
2022/05/16 10:08:51;;;;;;;;;;;26.00;66.40;;;;;;4826828;29;20058;-66
2022/05/16 10:11:24;;;;;;;12.20;2.88;;;26.00;66.10;;;;;;4825406;29;19980;-69
2022/05/16 10:13:50;;;;;;;11.68;3.30;;;25.90;66.50;;;;;;4831117;29;20562;-70
2022/05/16 10:16:16;;;;;;;9.88;3.30;;;25.80;66.20;;;;;;4831040;29;20057;-71
2022/05/16 10:19:03;;;;;;;6.47;3.10;;;25.80;65.90;;;;;;4846853;29;20593;-69
2022/05/16 10:21:30;;;;;;;9.43;3.30;;;26.30;66.90;;;;;;4845984;29;20512;-69
2022/05/16 10:23:56;;;;;;;7.68;3.10;;;25.90;66.70;;;;;;4831117;29;20129;-69
2022/05/16 10:26:23;;;;;;;7.28;3.08;;;26.10;66.00;;;;;;4848776;29;20057;-70
2022/05/16 10:28:58;;;;;;;8.20;3.17;;;25.80;66.70;;;;;;4865128;29;20556;-70
2022/05/16 10:34:20;;;;;;;9.48;3.33;;;25.80;66.00;;;;;;4846640;29;20412;-69
2022/05/16 10:36:49;;;;;;;8.32;3.40;;;26.00;67.20;;;;;;4868475;29;20509;-68
2022/05/16 10:39:21;;;;;;;13.43;3.95;;;26.00;67.30;;;;;;4907543;29;20319;-70
2022/05/16 10:42:06;;;;;;;9.82;3.30;;;25.70;67.20;;;;;;4921890;29;20039;-70
2022/05/16 10:44:40;;;;;;;9.50;3.78;;;25.70;65.70;;;;;;4927027;29;20487;-69
2022/05/16 10:47:14;;;;;;;12.25;3.25;;;25.70;65.70;;;;;;4906796;29;20393;-67
2022/05/16 10:49:48;;;;;;;11.00;3.28;;;25.80;66.20;;;;;;4938429;29;20044;-70
2022/05/16 10:52:14;;;;;;;10.82;3.28;;;25.80;67.70;;;;;;4875315;29;20083;-69
2022/05/16 10:54:40;;;;;;;11.93;3.13;;;25.60;67.30;;;;;;4922149;29;20082;-70
2022/05/16 10:57:21;;;;;;;9.00;3.10;;;25.70;67.20;;;;;;4919228;29;20081;-68
2022/05/16 11:00:20;;;;;;;6.97;2.95;;;25.80;66.60;;;;;;4919261;29;20048;-69
2022/05/16 11:03:17;;;;;;;8.02;3.05;;;25.80;67.60;;;;;;4833759;29;20528;-68
2022/05/16 11:05:48;;;;;;;11.25;3.33;;;25.80;66.60;;;;;;4845339;29;20124;-69
2022/05/16 11:08:23;;;;;;;11.10;3.43;;;25.70;66.20;;;;;;4890460;29;20419;-64
2022/05/16 11:11:25;;;;;;;9.90;3.10;;;25.90;66.20;;;;;;4861997;29;20301;-65
2022/05/16 11:14:09;;;;;;;9.87;3.50;;;25.50;65.80;;;;;;4881074;29;20096;-64
2022/05/16 11:16:38;;;;;;;10.90;3.90;;;25.60;67.10;;;;;;4858722;29;20416;-64
2022/05/16 11:19:27;;;;;;;9.48;3.20;;;26.00;67.60;;;;;;4852110;29;20052;-64
2022/05/16 11:22:00;;;;;;;8.15;3.08;;;25.70;66.10;;;;;;4897951;29;20550;-64
2022/05/16 11:25:05;;;;;;;10.15;3.35;;;25.80;65.90;;;;;;4851155;29;20057;-65
2022/05/16 11:27:49;;;;;;;8.05;3.03;;;25.70;66.00;;;;;;4853483;29;20145;-65
2022/05/16 11:31:05;;;;;;;9.30;3.15;;;26.00;65.90;;;;;;4877847;29;20424;-65
2022/05/16 11:33:47;;;;;;;18.63;3.83;;;26.00;66.00;;;;;;4844162;29;20598;-65
2022/05/16 11:36:24;;;;;;;9.68;4.03;;;26.00;67.60;;;;;;4828299;29;20129;-65
2022/05/16 11:39:00;;;;;;;10.45;3.47;;;25.80;66.90;;;;;;4836897;29;20067;-64
2022/05/16 11:41:43;;;;;;;9.55;4.07;;;25.90;67.30;;;;;;4866663;29;20053;-65
2022/05/16 11:44:34;;;;;;;10.25;3.72;;;26.00;65.80;;;;;;4882476;29;20057;-65
2022/05/16 11:47:22;;;;;;;8.93;3.50;;;25.80;65.60;;;;;;4880019;29;20498;-64
2022/05/16 11:50:18;;;;;;;12.55;3.65;;;25.80;66.00;;;;;;4874721;29;20143;-65
2022/05/16 11:53:16;;;;;;;7.75;3.40;;;26.00;65.80;;;;;;4837041;29;20057;-65
2022/05/16 12:01:29;;;;;;;9.35;3.63;;;26.10;66.70;;;;;;4774698;30;20059;-70
2022/05/16 12:04:13;;;;;;;7.75;3.40;;;26.20;66.70;;;;;;4772168;30;20063;-70
2022/05/16 12:06:54;;;;;;;12.35;3.72;;;25.80;66.50;;;;;;4780942;29;20096;-71
2022/05/16 12:09:23;;;;;;;11.93;3.55;;;25.90;66.40;;;;;;4792919;29;20065;-71
2022/05/16 12:11:55;;;;;;;8.02;3.20;;;26.10;67.20;;;;;;4778925;29;20382;-70
2022/05/16 12:14:34;;;;;;;11.73;2.90;;;25.90;66.40;;;;;;4808406;29;20122;-70
2022/05/16 12:17:21;;;;;;;8.05;3.08;;;25.80;66.70;;;;;;4793194;29;20418;-69
2022/05/16 12:19:51;;;;;;;7.00;3.22;;;26.00;66.60;;;;;;4808142;29;20120;-71
2022/05/16 12:22:24;;;;;;;8.05;3.20;;;26.00;70.00;;;;;;4792852;29;20046;-70
2022/05/16 12:24:52;;;;;;;10.32;3.83;;;25.70;66.90;;;;;;4805357;29;20114;-70
2022/05/16 12:27:29;;;;;;;11.32;3.22;;;25.60;66.10;;;;;;4807634;29;20537;-70
2022/05/16 12:29:57;;;;;;;10.43;3.35;;;25.70;65.50;;;;;;4845879;29;20061;-71
2022/05/16 12:32:29;;;;;;;7.43;3.10;;;25.80;67.10;;;;;;4884848;29;20507;-70
2022/05/16 12:35:03;;;;;;;9.55;2.90;;;26.10;68.50;;;;;;4930605;29;20581;-70
2022/05/16 12:37:29;;;;;;;12.68;3.17;;;25.80;67.80;;;;;;4956001;29;20086;-70
2022/05/16 12:40:10;;;;;;;11.73;3.22;;;25.80;67.70;;;;;;4922743;29;20086;-70
2022/05/16 12:43:10;;;;;;;11.85;3.25;;;25.70;66.80;;;;;;4944273;29;20127;-65
2022/05/16 12:46:01;;;;;;;9.10;3.28;;;25.80;67.30;;;;;;4903695;29;20111;-65
2022/05/16 12:49:01;;;;;;;7.63;3.17;;;25.60;67.30;;;;;;4890008;29;20496;-66
2022/05/16 12:51:52;;;;;;;8.27;3.60;;;25.30;67.70;;;;;;4903530;29;20063;-65
2022/05/16 12:54:52;;;;;;;8.27;2.92;;;25.60;68.20;;;;;;4888275;29;20130;-65
2022/05/16 12:57:22;;;;;;;11.18;3.80;;;25.40;68.20;;;;;;4936230;29;20066;-66
2022/05/16 13:00:22;;;;;;;6.10;2.90;;;25.40;69.10;;;;;;4898698;29;20498;-65
2022/05/16 13:03:02;;;;;;;6.10;2.92;;;25.60;68.30;;;;;;4903699;29;20417;-69
2022/05/16 13:05:42;;;;;;;9.25;3.30;;;25.50;68.30;;;;;;4936818;29;20044;-67
2022/05/16 13:08:41;;;;;;;9.98;3.28;;;25.60;68.50;;;;;;4919094;29;20040;-70
2022/05/16 13:11:15;;;;;;;9.60;3.80;;;25.60;68.90;;;;;;4903481;29;20134;-71
2022/05/16 13:14:20;;;;;;;8.75;3.67;;;25.20;68.40;;;;;;4919329;29;20538;-69
2022/05/16 13:17:08;;;;;;;7.20;3.40;;;25.40;69.20;;;;;;4864391;29;20105;-71
2022/05/16 13:19:40;;;;;;;14.30;4.25;;;25.20;69.60;;;;;;4880761;29;20104;-69
2022/05/16 13:22:12;;;;;;;11.60;3.65;;;25.40;70.90;;;;;;4863490;29;20068;-70
2022/05/16 13:24:38;;;;;;;8.73;3.10;;;25.30;69.30;;;;;;4816986;29;20121;-70
2022/05/16 13:29:49;;;;;;;12.07;4.05;;;25.40;71.00;;;;;;4879060;29;20056;-71
2022/05/16 13:32:18;;;;;;;13.50;3.92;;;25.30;75.00;;;;;;4864870;29;20048;-71
2022/05/16 13:34:51;;;;;;;8.93;3.58;;;25.40;74.70;;;;;;4859427;29;20149;-66
2022/05/16 13:37:25;;;;;;;8.60;3.17;;;25.70;72.30;;;;;;4851789;29;20052;-67
2022/05/16 13:39:57;;;;;;;11.18;3.28;;;25.40;70.40;;;;;;4848718;29;20056;-70
2022/05/16 13:42:23;;;;;;;9.93;3.22;;;25.20;71.70;;;;;;4882959;29;20057;-70
2022/05/16 13:44:49;;;;;;;14.30;3.72;;;25.40;71.60;;;;;;4849596;29;20049;-68
2022/05/16 13:47:19;;;;;;;8.85;3.40;;;25.50;71.50;;;;;;4883826;29;20056;-68
2022/05/16 13:49:45;;;;;;;8.27;3.65;;;25.40;71.70;;;;;;4864903;29;20511;-71
2022/05/16 13:52:28;;;;;;;11.88;3.40;;;25.50;71.50;;;;;;4874793;29;20116;-72
2022/05/16 13:54:56;;;;;;;9.52;3.28;;;23.70;71.20;;;;;;4906561;29;20052;-71
2022/05/16 13:57:23;;;;;;;10.00;3.88;;;25.00;71.20;;;;;;4921996;29;20067;-66
2022/05/16 14:00:07;;;;;;;8.55;4.13;;;25.50;71.80;;;;;;4892165;29;20130;-70
2022/05/16 14:02:32;;;;;;;7.50;3.47;;;25.30;71.90;;;;;;4893232;29;20413;-68
2022/05/16 14:04:58;;;;;;;8.85;3.42;;;25.40;71.70;;;;;;4875613;29;20047;-71
2022/05/16 14:07:25;;;;;;;12.68;3.70;;;25.60;71.70;;;;;;4893700;29;20574;-70
2022/05/16 14:10:05;;;;;;;10.13;3.15;;;25.50;72.20;;;;;;4906289;28;20098;-71
2022/05/16 14:12:51;;;;;;;7.38;3.40;;;25.40;72.50;;;;;;4930844;29;20062;-68
2022/05/16 14:15:39;;;;;;;9.68;3.58;;;25.20;75.10;;;;;;4920148;29;20505;-65
2022/05/16 14:18:08;;;;;;;10.38;3.80;;;25.40;72.50;;;;;;4890403;29;20040;-71
2022/05/16 14:20:42;;;;;;;11.88;3.90;;;25.30;70.50;;;;;;4922263;29;20086;-71
2022/05/16 14:23:23;;;;;;;9.30;3.55;;;25.50;72.60;;;;;;4876830;29;20036;-71
2022/05/16 14:25:53;;;;;;;10.13;4.47;;;25.30;72.50;;;;;;4926951;29;20043;-71
2022/05/16 14:28:22;;;;;;;8.40;3.70;;;25.40;72.60;;;;;;4884467;29;20032;-72
2022/05/16 14:31:19;;;;;;;8.90;3.55;;;25.50;71.00;;;;;;4909440;29;20168;-72
2022/05/16 14:34:19;;;;;;;10.30;4.10;;;25.10;71.30;;;;;;4897216;29;20048;-70
2022/05/16 14:36:45;;;;;;;9.50;3.40;;;25.40;71.70;;;;;;4896308;29;20516;-65
2022/05/16 14:39:20;;;;;;;7.70;3.75;;;25.20;72.30;;;;;;4892531;29;20143;-72
2022/05/16 14:42:12;;;;;;;9.30;3.65;;;25.30;71.40;;;;;;4901201;29;20088;-65
2022/05/16 14:45:01;;;;;;;12.40;3.97;;;25.10;71.70;;;;;;4913594;29;20557;-70
2022/05/16 14:47:32;;;;;;;12.13;3.58;;;25.20;71.60;;;;;;4886104;29;20055;-64
2022/05/16 14:49:58;;;;;;;11.57;3.83;;;25.30;73.10;;;;;;4893990;29;20144;-71
2022/05/16 14:52:26;;;;;;;14.43;3.45;;;24.90;72.60;;;;;;4882247;29;20577;-71
2022/05/16 14:55:02;;;;;;;8.20;3.85;;;25.00;73.00;;;;;;4882088;29;20064;-71
2022/05/16 14:57:27;;;;;;;10.65;3.92;;;25.10;73.50;;;;;;4866749;29;20542;-72
2022/05/16 14:59:53;;;;;;;10.57;3.40;;;24.90;72.90;;;;;;4873017;29;20059;-72
2022/05/16 15:05:04;;;;;;;10.20;3.40;;;25.00;72.00;;;;;;4897207;29;20221;-72
2022/05/16 15:07:30;;;;;;;12.52;3.65;;;24.30;72.30;;;;;;4866720;29;20053;-72
2022/05/16 15:09:56;;;;;;;9.07;3.55;;;24.90;73.30;;;;;;4889334;29;20063;-72
2022/05/16 15:12:22;;;;;;;11.10;3.60;;;24.90;73.20;;;;;;4863765;29;20536;-71
2022/05/16 15:14:48;;;;;;;12.95;4.07;;;25.10;73.40;;;;;;4869094;29;20520;-65
2022/05/16 15:17:14;;;;;;;12.18;3.58;;;25.00;73.60;;;;;;4859967;29;20538;-64
2022/05/16 15:19:40;;;;;;;10.95;3.90;;;24.70;73.50;;;;;;4866895;29;20049;-73
2022/05/16 15:22:11;;;;;;;15.60;4.28;;;24.90;73.50;;;;;;4919925;29;20051;-70
2022/05/16 15:24:39;;;;;;;9.70;3.67;;;25.20;74.40;;;;;;4904778;29;20135;-69
2022/05/16 15:27:06;;;;;;;12.95;3.63;;;24.80;74.00;;;;;;4920535;29;20040;-69
2022/05/16 15:29:36;;;;;;;11.38;4.15;;;25.00;76.90;;;;;;4937361;29;20047;-69
2022/05/16 15:32:06;;;;;;;9.77;3.33;;;25.00;73.40;;;;;;4937645;29;20083;-68
2022/05/16 15:34:33;;;;;;;9.52;3.60;;;24.90;74.00;;;;;;4919870;29;20058;-73
2022/05/16 15:36:59;;;;;;;9.85;3.95;;;24.80;74.20;;;;;;4888360;28;20442;-67
2022/05/16 15:39:25;;;;;;;12.43;3.75;;;25.30;74.80;;;;;;4937935;29;20054;-69
2022/05/16 15:41:51;;;;;;;12.98;4.68;;;24.90;74.40;;;;;;4939421;29;20051;-68
2022/05/16 15:44:19;;;;;;;13.13;3.72;;;25.20;74.80;;;;;;4919889;29;20050;-66
2022/05/16 15:46:46;;;;;;;19.45;4.40;;;24.80;74.60;;;;;;4936345;29;20135;-63
2022/05/16 15:49:12;;;;;;;10.75;4.50;;;24.90;74.80;;;;;;4930508;29;20047;-63
2022/05/16 15:51:38;;;;;;;11.27;5.43;;;24.90;75.10;;;;;;4937804;29;20458;-63
2022/05/16 15:54:05;;;;;;;12.65;5.43;;;24.70;75.40;;;;;;4939274;29;20086;-64
2022/05/16 15:56:31;;;;;;;20.20;6.18;;;24.90;76.00;;;;;;4908980;29;20552;-64
2022/05/16 15:58:57;;;;;;;23.38;6.10;;;24.90;76.20;;;;;;4903640;29;20051;-64
2022/05/16 16:01:22;;;;;;;16.17;5.63;;;24.90;76.30;;;;;;4923824;29;20119;-63
2022/05/16 16:09:17;;;;;;;10.88;5.57;;;24.80;76.20;;;;;;4936766;29;20146;-64
2022/05/16 16:11:43;;;;;;;14.70;6.75;;;25.00;77.30;;;;;;4920933;29;20083;-64
2022/05/16 16:14:09;;;;;;;17.77;5.53;;;24.90;77.70;;;;;;4944853;29;20039;-64
2022/05/16 16:16:35;;;;;;;12.55;5.47;;;25.10;77.70;;;;;;4903436;29;20051;-64
2022/05/16 16:19:01;;;;;;;14.60;5.20;;;24.80;77.80;;;;;;4936484;29;20504;-64
2022/05/16 16:21:27;;;;;;;15.48;5.43;;;25.00;77.70;;;;;;4904095;29;20405;-63
2022/05/16 16:23:53;;;;;;;14.65;5.90;;;25.10;77.90;;;;;;4940349;28;20044;-64
2022/05/16 16:26:19;;;;;;;14.35;7.55;;;24.80;77.60;;;;;;4934501;29;20066;-65
2022/05/16 16:28:45;;;;;;;14.50;7.97;;;24.90;77.90;;;;;;4936548;29;20079;-65
2022/05/16 16:31:16;;;;;;;12.48;7.72;;;25.00;77.80;;;;;;4920251;29;20091;-65
2022/05/16 16:33:42;;;;;;;14.65;7.45;;;25.00;76.50;;;;;;4896282;29;20122;-66
2022/05/16 16:36:08;;;;;;;13.88;7.45;;;24.80;77.60;;;;;;4922266;29;20545;-66
2022/05/16 16:38:34;;;;;;;12.55;6.65;;;25.00;77.50;;;;;;4919599;29;20071;-65
2022/05/16 16:41:01;;;;;;;11.82;7.03;;;25.10;77.30;;;;;;4937206;29;20411;-65
2022/05/16 16:43:36;;;;;;;11.32;6.82;;;25.30;78.00;;;;;;4919264;29;20127;-66
2022/05/16 16:46:10;;;;;;;13.40;6.88;;;25.10;78.10;;;;;;4923330;29;20051;-65
2022/05/16 16:48:36;;;;;;;14.13;6.97;;;24.90;77.90;;;;;;4888079;29;20118;-65
2022/05/16 16:57:27;;;;;;;12.98;7.10;;;25.00;77.40;;;;;;4872191;29;20477;-65
2022/05/16 16:59:21;;;;;;;13.07;6.60;;;25.10;76.40;;;;;;4935995;29;20129;-65
2022/05/16 17:01:47;;;;;;;17.27;8.93;;;25.30;77.40;;;;;;4903179;29;20043;-65
2022/05/16 17:04:13;;;;;;;13.38;7.63;;;24.90;77.40;;;;;;4936088;29;20113;-66
2022/05/16 17:06:39;;;;;;;13.02;8.05;;;25.10;77.10;;;;;;4897292;29;20122;-65
2022/05/16 17:09:05;;;;;;;14.95;8.00;;;24.80;77.00;;;;;;4937838;29;20051;-65
2022/05/16 17:11:31;;;;;;;11.10;7.88;;;25.10;77.00;;;;;;4890870;29;20053;-65
2022/05/16 17:13:57;;;;;;;11.35;8.07;;;25.00;77.60;;;;;;4930850;29;20185;-66
2022/05/16 17:16:22;;;;;;;17.90;8.73;;;24.80;77.10;;;;;;4913882;29;20118;-65
2022/05/16 17:18:48;;;;;;;17.70;9.48;;;24.80;77.50;;;;;;4921530;29;20079;-66
2022/05/16 17:21:16;;;;;;;13.85;10.05;;;25.00;77.50;;;;;;4923797;29;20047;-65
2022/05/16 17:23:49;;;;;;;16.63;10.88;;;24.70;77.40;;;;;;4953898;29;20047;-66
2022/05/16 17:26:15;;;;;;;;;;;24.70;77.90;;;;;;4906579;29;20051;-65
2022/05/16 17:28:41;;;;;;;17.33;10.32;;;24.80;78.00;;;;;;4953279;28;19954;-65
2022/05/16 17:31:07;;;;;;;13.48;9.88;;;24.70;77.40;;;;;;4913717;29;20565;-65
2022/05/16 17:33:34;;;;;;;15.35;10.25;;;25.00;77.60;;;;;;4918281;29;20138;-65
2022/05/16 17:35:59;;;;;;;14.18;9.60;;;25.10;77.60;;;;;;4887074;29;20090;-66
2022/05/16 17:38:25;;;;;;;18.80;9.68;;;24.70;77.20;;;;;;4926445;29;20457;-64
2022/05/16 17:40:51;;;;;;;12.25;9.35;;;24.80;77.40;;;;;;4947272;29;20047;-65
2022/05/16 17:43:17;;;;;;;14.80;9.93;;;24.70;77.50;;;;;;4954225;29;20044;-65
2022/05/16 17:45:42;;;;;;;16.92;10.73;;;24.80;77.70;;;;;;4937211;29;20054;-65
2022/05/16 17:48:10;;;;;;;13.70;9.50;;;24.90;77.60;;;;;;4921734;29;20051;-65
2022/05/16 17:50:45;;;;;;;15.38;10.20;;;24.60;77.30;;;;;;4937021;29;20089;-65
2022/05/16 17:53:11;;;;;;;15.55;10.30;;;24.60;78.00;;;;;;4918665;29;20051;-65
2022/05/16 17:55:37;;;;;;;13.60;8.82;;;24.90;77.90;;;;;;4917834;29;20130;-66
2022/05/16 17:58:07;;;;;;;14.63;10.02;;;24.50;77.30;;;;;;4935740;29;20051;-65
2022/05/16 18:00:33;;;;;;;13.38;9.85;;;24.80;77.70;;;;;;4918573;29;20438;-65
2022/05/16 18:02:58;;;;;;;14.18;8.60;;;24.50;77.40;;;;;;4937897;29;20139;-65
2022/05/16 18:05:24;;;;;;;14.27;9.05;;;24.60;77.60;;;;;;4934958;29;20043;-65
2022/05/16 18:07:51;;;;;;;14.68;9.27;;;24.90;77.70;;;;;;4918193;29;20047;-66
2022/05/16 18:10:17;;;;;;;13.20;8.98;;;24.50;77.80;;;;;;4935327;29;20051;-65
2022/05/16 18:12:43;;;;;;;11.68;8.70;;;24.70;77.60;;;;;;4918556;29;20055;-66
2022/05/16 18:15:10;;;;;;;15.48;8.85;;;24.60;77.80;;;;;;4935240;29;20051;-66
2022/05/16 18:17:38;;;;;;;14.65;8.93;;;24.90;78.30;;;;;;4918587;29;20141;-65
2022/05/16 18:20:05;;;;;;;14.68;8.98;;;24.50;78.00;;;;;;4918158;29;20121;-65
2022/05/16 18:22:33;;;;;;;15.77;8.52;;;24.60;77.60;;;;;;4913265;29;20520;-65
2022/05/16 18:25:00;;;;;;;11.95;9.00;;;24.50;81.00;;;;;;4908872;29;20501;-65
2022/05/16 18:27:28;;;;;;;15.98;9.57;;;24.40;78.10;;;;;;4941084;29;20047;-65
2022/05/16 18:29:54;;;;;;;13.55;8.73;;;24.60;78.40;;;;;;4924901;29;20125;-65
2022/05/16 18:32:21;;;;;;;14.18;8.80;;;24.60;81.90;;;;;;4924492;29;20051;-66
2022/05/16 18:34:47;;;;;;;16.40;10.05;;;24.50;78.30;;;;;;4911366;29;20056;-65
2022/05/16 18:37:13;;;;;;;15.25;9.23;;;24.60;78.10;;;;;;4955377;29;20047;-66
2022/05/16 18:39:39;;;;;;;14.50;9.48;;;24.50;78.40;;;;;;4928241;29;20061;-65
2022/05/16 18:53:04;;;;;;;15.15;9.85;;;24.20;77.80;;;;;;4956718;29;20051;-65
2022/05/16 18:55:30;;;;;;;15.60;9.25;;;24.50;82.70;;;;;;4926194;29;20043;-65
2022/05/16 18:58:02;;;;;;;16.25;9.27;;;24.30;82.60;;;;;;4936620;29;20090;-65
2022/05/16 19:00:30;;;;;;;15.70;9.68;;;24.50;78.90;;;;;;4935794;28;20043;-65
2022/05/16 19:02:56;;;;;;;17.00;9.07;;;24.60;79.10;;;;;;4933000;29;20449;-65
2022/05/16 19:05:23;;;;;;;17.05;9.38;;;24.20;82.20;;;;;;4921460;29;20035;-66
2022/05/16 19:07:49;;;;;;;14.32;9.40;;;24.20;82.80;;;;;;4946827;29;20043;-66
2022/05/16 19:10:14;;;;;;;16.38;9.80;;;24.30;82.30;;;;;;4920835;29;20071;-66
2022/05/16 19:12:41;;;;;;;14.55;9.82;;;24.20;78.50;;;;;;4906296;29;20106;-66
2022/05/16 19:15:08;;;;;;;14.43;9.38;;;24.60;79.40;;;;;;4922508;29;20197;-66
2022/05/16 19:17:35;;;;;;;14.77;9.45;;;24.20;82.10;;;;;;4912463;29;20055;-67
2022/05/16 19:20:08;;;;;;;13.75;8.85;;;24.30;79.40;;;;;;4890928;29;20402;-66
2022/05/16 19:22:34;;;;;;;12.80;9.32;;;24.20;82.30;;;;;;4892720;29;20053;-65
2022/05/16 19:25:04;;;;;;;16.90;9.35;;;24.40;82.70;;;;;;4922067;29;20048;-64
2022/05/16 19:27:30;;;;;;;15.80;9.13;;;24.30;82.40;;;;;;4923808;29;20051;-66
2022/05/16 19:32:40;;;;;;;13.68;9.13;;;24.10;78.70;;;;;;4924628;29;20062;-66
2022/05/16 19:35:09;;;;;;;13.70;8.90;;;24.30;82.80;;;;;;4904169;29;20063;-66
2022/05/16 19:37:36;;;;;;;14.60;9.18;;;24.10;83.30;;;;;;4893230;29;20058;-65
2022/05/16 19:40:03;;;;;;;12.20;8.18;;;24.20;79.70;;;;;;4939432;29;20043;-66
2022/05/16 19:42:30;;;;;;;16.00;9.90;;;24.10;83.10;;;;;;4923583;29;20050;-65
2022/05/16 19:44:56;;;;;;;17.05;10.07;;;24.20;82.70;;;;;;4932723;29;20054;-65
2022/05/16 19:47:22;;;;;;;16.63;9.10;;;24.20;83.00;;;;;;4946321;29;20401;-65
2022/05/16 19:49:48;;;;;;;13.50;9.25;;;24.20;83.00;;;;;;4920476;29;20485;-65
2022/05/16 19:52:14;;;;;;;13.90;9.20;;;24.40;79.70;;;;;;4955065;29;20048;-66